Time;durP1;ratioP1;P1;durP2;ratioP2;P2;SDS_P1;SDS_P2;PMS_P1;PMS_P2;Temp;Humidity;BMP_temperature;BMP_pressure;BME280_temperature;BME280_humidity;BME280_pressure;Samples;Min_cycle;Max_cycle;Signal;HPM_P1;HPM_P2
2021/08/06 00:01:59;;;;;;;1.83;1.40;;;;;;;16.32;100.00;100246.47;5095124;28;20483;-73
2021/08/06 00:04:27;;;;;;;3.70;2.33;;;;;;;16.37;100.00;100235.28;5095165;28;20472;-72
2021/08/06 00:06:54;;;;;;;2.70;2.43;;;;;;;16.28;100.00;100242.06;5095124;28;20436;-73
2021/08/06 00:09:20;;;;;;;2.83;2.57;;;;;;;16.33;100.00;100242.59;5095093;28;20447;-73
2021/08/06 00:11:46;;;;;;;3.13;2.13;;;;;;;16.40;100.00;100244.75;5094989;28;20445;-73
2021/08/06 00:14:13;;;;;;;3.00;2.43;;;;;;;16.36;100.00;100235.66;5094951;28;20833;-73
2021/08/06 00:16:40;;;;;;;3.70;2.37;;;;;;;16.36;100.00;100236.44;5094634;28;20963;-73
2021/08/06 00:19:06;;;;;;;2.60;2.13;;;;;;;16.36;100.00;100238.38;5094640;28;20964;-73
2021/08/06 00:21:34;;;;;;;6.40;2.70;;;;;;;16.34;100.00;100241.47;5094872;28;20484;-73
2021/08/06 00:24:00;;;;;;;2.53;1.83;;;;;;;16.35;100.00;100234.06;5093424;28;20479;-73
2021/08/06 00:26:27;;;;;;;2.50;2.27;;;;;;;16.35;100.00;100243.06;5094796;28;20444;-73
2021/08/06 00:28:53;;;;;;;2.80;2.17;;;;;;;16.25;100.00;100240.81;5094738;28;20440;-74
2021/08/06 00:31:20;;;;;;;4.30;2.80;;;;;;;16.29;100.00;100239.00;5094692;28;20440;-74
2021/08/06 00:33:46;;;;;;;2.73;2.13;;;;;;;16.37;100.00;100243.50;5094237;28;20467;-74
2021/08/06 00:36:12;;;;;;;3.20;2.13;;;;;;;16.38;100.00;100234.16;5094578;28;20444;-74
2021/08/06 00:38:40;;;;;;;1.60;1.50;;;;;;;16.30;100.00;100229.63;5094809;28;20448;-74
2021/08/06 00:41:07;;;;;;;4.10;2.60;;;;;;;16.22;100.00;100233.31;5094102;28;20937;-74
2021/08/06 00:43:33;;;;;;;2.07;1.97;;;;;;;16.14;98.84;100232.31;5094427;28;20473;-73
2021/08/06 00:46:02;;;;;;;2.10;1.90;;;;;;;16.05;98.72;100228.94;5094375;28;20440;-73
2021/08/06 00:48:29;;;;;;;4.70;2.10;;;;;;;16.06;98.91;100227.78;5094373;28;20900;-73
2021/08/06 00:50:56;;;;;;;3.13;2.20;;;;;;;16.14;100.00;100223.31;5094233;28;20436;-73
2021/08/06 00:53:23;;;;;;;3.93;2.23;;;;;;;16.03;100.00;100224.97;5094198;28;20445;-73
2021/08/06 00:55:51;;;;;;;2.23;1.93;;;;;;;16.16;100.00;100221.06;5094171;28;20440;-73
2021/08/06 00:58:18;;;;;;;3.00;2.57;;;;;;;16.12;100.00;100214.69;5094263;28;20448;-73
2021/08/06 01:00:47;;;;;;;2.37;2.10;;;;;;;16.11;100.00;100219.34;5093838;28;20977;-73
2021/08/06 01:03:20;;;;;;;2.83;2.07;;;;;;;16.18;100.00;100217.97;5093973;28;20896;-73
2021/08/06 01:05:56;;;;;;;2.77;2.13;;;;;;;16.11;100.00;100215.81;5094072;28;20816;-73
2021/08/06 01:08:28;;;;;;;1.77;1.67;;;;;;;16.14;100.00;100212.38;5094012;28;20424;-73
2021/08/06 01:10:59;;;;;;;3.40;2.37;;;;;;;16.20;100.00;100210.19;5093602;28;20782;-73
2021/08/06 01:13:31;;;;;;;2.70;2.00;;;;;;;16.11;100.00;100208.44;5093874;28;20417;-73
2021/08/06 01:16:00;;;;;;;3.87;2.63;;;;;;;16.25;100.00;100218.16;5093861;28;20467;-73
2021/08/06 01:18:28;;;;;;;2.67;1.83;;;;;;;16.32;100.00;100215.63;5093901;28;20436;-73
2021/08/06 01:20:56;;;;;;;4.97;2.67;;;;;;;16.29;100.00;100213.56;5093470;28;20518;-73
2021/08/06 01:23:28;;;;;;;2.97;2.77;;;;;;;16.32;100.00;100212.88;5099794;27;20488;-72
2021/08/06 01:25:58;;;;;;;3.70;2.70;;;;;;;16.28;100.00;100217.44;5093751;28;20424;-73
2021/08/06 01:28:27;;;;;;;5.40;2.40;;;;;;;16.31;100.00;100211.31;5093781;28;20436;-73
2021/08/06 01:30:54;;;;;;;3.30;2.60;;;;;;;16.28;100.00;100215.50;5093600;28;20441;-73
2021/08/06 01:33:21;;;;;;;3.33;2.80;;;;;;;16.23;100.00;100204.84;5093534;28;20432;-73
2021/08/06 01:35:47;;;;;;;1.63;1.53;;;;;;;16.34;100.00;100211.41;5093291;28;20441;-73
2021/08/06 01:38:15;;;;;;;2.43;2.13;;;;;;;16.21;100.00;100211.81;5093507;28;20428;-73
2021/08/06 01:40:47;;;;;;;2.20;1.90;;;;;;;16.36;100.00;100213.78;5093436;28;20433;-73
2021/08/06 01:43:21;;;;;;;2.87;2.53;;;;;;;16.34;100.00;100210.63;5093055;28;20973;-74
2021/08/06 01:45:54;;;;;;;2.00;1.80;;;;;;;16.30;100.00;100209.72;5093451;28;20443;-74
2021/08/06 01:48:28;;;;;;;2.73;2.37;;;;;;;16.34;99.24;100205.94;5093484;28;20835;-74
2021/08/06 01:50:56;;;;;;;2.50;2.00;;;;;;;16.26;99.15;100198.69;5093384;28;20432;-74
2021/08/06 01:53:26;;;;;;;2.87;1.77;;;;;;;16.20;99.23;100202.78;5093390;28;20436;-73
2021/08/06 01:55:57;;;;;;;2.17;1.97;;;;;;;16.20;99.99;100202.00;5093339;28;20416;-74
2021/08/06 01:58:25;;;;;;;4.27;2.20;;;;;;;16.15;100.00;100211.25;5093338;28;20853;-74
2021/08/06 02:00:53;;;;;;;3.37;2.30;;;;;;;16.13;100.00;100206.13;5093297;28;20447;-74
2021/08/06 02:03:21;;;;;;;3.00;2.43;;;;;;;16.31;100.00;100201.16;5093122;28;20480;-74
2021/08/06 02:05:50;;;;;;;2.80;2.10;;;;;;;16.38;100.00;100197.84;5093465;28;20448;-73
2021/08/06 02:08:16;;;;;;;3.27;2.33;;;;;;;16.38;100.00;100197.84;5093288;28;20499;-74
2021/08/06 02:10:43;;;;;;;2.20;2.00;;;;;;;16.44;100.00;100196.44;5093174;28;20441;-74
2021/08/06 02:13:10;;;;;;;2.33;1.93;;;;;;;16.40;100.00;100199.06;5093118;28;20436;-74
2021/08/06 02:15:42;;;;;;;2.50;2.30;;;;;;;16.37;100.00;100190.75;5092835;28;20460;-74
2021/08/06 02:18:09;;;;;;;1.97;1.70;;;;;;;16.39;100.00;100193.94;5093207;28;20436;-74
2021/08/06 02:20:37;;;;;;;2.20;1.37;;;;;;;16.37;100.00;100186.06;5093142;28;20451;-74
2021/08/06 02:23:05;;;;;;;3.10;2.23;;;;;;;16.42;100.00;100195.19;5092728;28;20999;-74
2021/08/06 02:25:33;;;;;;;2.60;2.30;;;;;;;16.37;100.00;100194.28;5092988;28;20472;-72
2021/08/06 02:28:01;;;;;;;2.60;2.07;;;;;;;16.46;100.00;100204.28;5093027;28;20819;-71
2021/08/06 02:30:30;;;;;;;3.70;2.40;;;;;;;16.48;100.00;100197.31;5092942;28;20451;-71
2021/08/06 02:32:58;;;;;;;3.30;2.03;;;;;;;16.37;100.00;100194.28;5092966;28;20454;-73
2021/08/06 02:35:25;;;;;;;2.97;2.20;;;;;;;16.32;100.00;100191.81;5092900;28;20472;-74
2021/08/06 02:37:52;;;;;;;2.17;1.93;;;;;;;16.42;100.00;100200.63;5092934;28;20467;-73
2021/08/06 02:40:19;;;;;;;3.77;3.10;;;;;;;16.43;100.00;100191.31;5093271;28;20494;-74
2021/08/06 02:42:47;;;;;;;4.57;2.90;;;;;;;16.42;100.00;100184.25;5092758;28;20492;-75
2021/08/06 02:45:13;;;;;;;3.23;2.80;;;;;;;16.38;100.00;100184.16;5092846;28;20521;-74
2021/08/06 02:47:40;;;;;;;2.00;1.80;;;;;;;16.38;100.00;100181.44;5096217;28;20444;-74
2021/08/06 02:50:09;;;;;;;2.93;2.63;;;;;;;16.36;98.44;100187.22;5096670;28;20451;-75
2021/08/06 02:52:36;;;;;;;2.83;2.17;;;;;;;16.23;99.69;100188.44;5096596;28;20437;-74
2021/08/06 02:55:03;;;;;;;2.33;1.80;;;;;;;16.21;100.00;100181.75;5096555;28;20499;-74
2021/08/06 02:57:29;;;;;;;2.50;1.97;;;;;;;16.27;100.00;100177.59;5096609;28;20451;-74
2021/08/06 02:59:56;;;;;;;2.87;1.93;;;;;;;16.27;100.00;100178.41;5096090;28;20956;-73
2021/08/06 03:02:22;;;;;;;2.47;1.50;;;;;;;16.25;100.00;100179.91;5096396;28;20483;-75
2021/08/06 03:04:48;;;;;;;5.03;2.30;;;;;;;16.24;100.00;100183.75;5096269;28;20460;-74
2021/08/06 03:07:19;;;;;;;2.23;2.03;;;;;;;16.24;100.00;100179.09;5096396;28;20459;-74
2021/08/06 03:09:45;;;;;;;2.03;1.83;;;;;;;16.33;100.00;100181.66;5095966;28;20436;-75
2021/08/06 03:12:12;;;;;;;1.90;1.70;;;;;;;16.38;100.00;100184.97;5096235;28;20781;-74
2021/08/06 03:14:40;;;;;;;2.00;1.80;;;;;;;16.28;100.00;100176.47;5096128;28;20456;-75
2021/08/06 03:17:06;;;;;;;2.80;2.20;;;;;;;16.32;100.00;100174.63;5096118;28;20547;-74
2021/08/06 03:19:33;;;;;;;2.30;1.90;;;;;;;16.34;100.00;100177.81;5099985;28;20428;-74
2021/08/06 03:21:59;;;;;;;3.07;2.40;;;;;;;16.29;100.00;100184.31;5098271;28;20428;-74
2021/08/06 03:24:27;;;;;;;3.83;2.23;;;;;;;16.24;100.00;100179.09;5095455;28;20831;-74
2021/08/06 03:26:54;;;;;;;3.73;1.90;;;;;;;16.21;100.00;100176.28;5096170;28;20440;-74
2021/08/06 03:29:20;;;;;;;3.00;2.20;;;;;;;16.16;100.00;100177.31;5095919;28;20440;-75
2021/08/06 03:31:46;;;;;;;2.43;2.00;;;;;;;16.06;100.00;100173.13;5095840;28;20444;-76
2021/08/06 03:34:13;;;;;;;2.43;1.93;;;;;;;16.13;99.76;100175.28;5096061;28;20457;-75
2021/08/06 03:36:39;;;;;;;2.60;1.90;;;;;;;16.07;99.43;100173.94;5095824;28;20448;-75
2021/08/06 03:39:06;;;;;;;3.67;2.30;;;;;;;16.04;99.31;100174.63;5096013;28;20448;-75
2021/08/06 03:41:34;;;;;;;3.83;2.70;;;;;;;16.05;99.84;100177.00;5095696;28;20441;-75
2021/08/06 03:44:00;;;;;;;2.40;2.03;;;;;;;16.02;100.00;100172.22;5095479;28;20488;-75
2021/08/06 03:46:27;;;;;;;1.93;1.77;;;;;;;15.99;100.00;100167.47;5095572;28;20444;-75
2021/08/06 03:48:53;;;;;;;7.00;2.40;;;;;;;16.00;100.00;100157.34;5095526;28;20439;-75
2021/08/06 03:51:19;;;;;;;2.40;2.10;;;;;;;15.91;100.00;100162.97;5095467;28;20444;-74
2021/08/06 03:53:46;;;;;;;1.90;1.60;;;;;;;15.86;100.00;100169.47;5095364;28;20456;-74
2021/08/06 03:56:12;;;;;;;2.27;2.07;;;;;;;15.94;100.00;100178.66;5095382;28;20444;-73
2021/08/06 03:58:40;;;;;;;2.13;1.90;;;;;;;15.99;100.00;100166.69;5095164;28;20484;-73
2021/08/06 04:01:07;;;;;;;4.80;3.40;;;;;;;15.93;100.00;100165.34;5095655;28;20440;-73
2021/08/06 04:03:33;;;;;;;3.33;2.07;;;;;;;15.83;100.00;100164.69;5096514;28;20496;-73
2021/08/06 04:05:59;;;;;;;2.90;2.37;;;;;;;15.87;100.00;100167.53;5095295;28;20451;-72
2021/08/06 04:08:26;;;;;;;3.20;2.90;;;;;;;15.81;100.00;100172.44;5094882;28;20480;-72
2021/08/06 04:10:52;;;;;;;3.17;2.20;;;;;;;15.83;100.00;100170.16;5095061;28;20452;-73
2021/08/06 04:13:19;;;;;;;3.30;2.57;;;;;;;15.84;100.00;100165.47;5095262;28;20440;-73
2021/08/06 04:15:46;;;;;;;2.27;2.00;;;;;;;15.76;100.00;100172.69;5094659;28;20937;-73
2021/08/06 04:18:13;;;;;;;2.73;2.40;;;;;;;15.77;100.00;100168.03;5094966;28;20440;-73
2021/08/06 04:20:39;;;;;;;1.90;1.63;;;;;;;15.80;100.00;100159.13;5095195;28;20444;-72
2021/08/06 04:23:06;;;;;;;2.43;2.23;;;;;;;15.76;100.00;100153.56;5094517;28;21005;-73
2021/08/06 04:25:32;;;;;;;2.47;2.27;;;;;;;15.72;100.00;100155.41;5094801;28;20468;-73
2021/08/06 04:27:58;;;;;;;2.53;2.00;;;;;;;15.61;100.00;100152.31;5094765;28;20444;-73
2021/08/06 04:30:25;;;;;;;3.63;2.33;;;;;;;15.66;100.00;100147.78;5094749;28;20448;-73
2021/08/06 04:32:53;;;;;;;5.60;2.60;;;;;;;15.64;100.00;100151.66;5094380;28;20475;-73
2021/08/06 04:35:20;;;;;;;2.30;2.10;;;;;;;15.68;100.00;100151.78;5094607;28;20465;-73
2021/08/06 04:37:48;;;;;;;4.20;2.40;;;;;;;15.64;100.00;100139.94;5094641;28;20823;-73
2021/08/06 04:40:15;;;;;;;3.07;2.13;;;;;;;15.64;100.00;100140.75;5094633;28;20448;-73
2021/08/06 04:42:41;;;;;;;2.73;2.23;;;;;;;15.64;100.00;100131.75;5094375;28;20480;-70
2021/08/06 04:45:09;;;;;;;2.73;2.20;;;;;;;15.69;98.70;100136.19;5094401;28;20468;-72
2021/08/06 04:47:35;;;;;;;3.53;2.27;;;;;;;15.64;98.99;100139.94;5094469;28;20447;-73
2021/08/06 04:50:03;;;;;;;2.80;2.23;;;;;;;15.62;100.00;100139.47;5094304;28;20444;-72
2021/08/06 04:52:30;;;;;;;2.60;2.40;;;;;;;15.68;100.00;100135.41;5094328;28;20433;-72
2021/08/06 04:54:56;;;;;;;3.57;2.40;;;;;;;15.86;100.00;100133.16;5094160;28;20461;-71
2021/08/06 04:57:23;;;;;;;2.53;2.33;;;;;;;15.93;100.00;100135.28;5094249;28;20444;-72
2021/08/06 04:59:49;;;;;;;3.03;2.27;;;;;;;16.07;100.00;100130.22;5093683;28;20483;-70
2021/08/06 05:02:16;;;;;;;3.10;2.30;;;;;;;16.11;100.00;100136.56;5094132;28;20436;-71
2021/08/06 05:04:42;;;;;;;3.13;2.60;;;;;;;16.19;100.00;100132.88;5093961;28;20488;-71
2021/08/06 05:07:16;;;;;;;2.83;2.63;;;;;;;16.31;100.00;100132.03;5093777;28;20937;-70
2021/08/06 05:09:42;;;;;;;3.17;2.90;;;;;;;16.29;100.00;100126.94;5093496;28;20425;-70
2021/08/06 05:12:09;;;;;;;3.53;3.17;;;;;;;16.48;100.00;100133.66;5093965;28;20444;-70
2021/08/06 05:14:35;;;;;;;3.40;2.30;;;;;;;16.57;100.00;100135.06;5093831;28;20463;-70
2021/08/06 05:17:02;;;;;;;4.83;2.43;;;;;;;16.57;100.00;100134.25;5100706;28;20447;-71
2021/08/06 05:19:28;;;;;;;2.93;2.30;;;;;;;16.55;100.00;100139.28;5093856;28;20451;-71
2021/08/06 05:21:55;;;;;;;4.47;3.13;;;;;;;16.61;100.00;100126.94;5093532;28;20950;-71
2021/08/06 05:24:22;;;;;;;3.20;2.43;;;;;;;16.55;99.93;100136.53;5093314;28;20491;-71
2021/08/06 05:26:49;;;;;;;3.10;2.20;;;;;;;16.58;98.92;100131.16;5093382;28;20432;-71
2021/08/06 05:29:15;;;;;;;2.83;2.50;;;;;;;16.62;99.44;100123.06;5093712;28;20476;-70
2021/08/06 05:31:42;;;;;;;2.67;2.40;;;;;;;16.64;100.00;100121.56;5093630;28;20451;-71
2021/08/06 05:34:08;;;;;;;5.10;2.43;;;;;;;16.62;100.00;100120.31;5093186;28;21001;-71
2021/08/06 05:36:35;;;;;;;3.27;2.97;;;;;;;16.68;100.00;100121.63;5093680;28;20490;-70
2021/08/06 05:39:01;;;;;;;3.03;2.73;;;;;;;16.66;100.00;100113.00;5093513;28;20452;-70
2021/08/06 05:41:29;;;;;;;3.20;2.67;;;;;;;16.67;100.00;100111.84;5093220;28;20811;-69
2021/08/06 05:43:55;;;;;;;3.90;2.97;;;;;;;16.72;100.00;100117.06;5093272;28;20847;-69
2021/08/06 05:46:22;;;;;;;3.07;2.77;;;;;;;16.86;100.00;100111.16;5093479;28;20440;-69
2021/08/06 05:48:48;;;;;;;4.43;3.00;;;;;;;16.90;100.00;100118.28;5093386;28;20441;-68
2021/08/06 05:51:15;;;;;;;4.13;2.77;;;;;;;16.98;100.00;100118.47;5093378;28;20448;-69
2021/08/06 05:53:41;;;;;;;5.13;2.80;;;;;;;17.03;100.00;100121.72;5093343;28;20512;-69
2021/08/06 05:56:08;;;;;;;5.87;3.07;;;;;;;17.12;100.00;100127.78;5093334;28;20441;-69
2021/08/06 05:58:35;;;;;;;5.60;3.43;;;;;;;17.23;100.00;100119.84;5093327;28;20437;-69
2021/08/06 06:01:02;;;;;;;12.80;3.20;;;;;;;17.35;100.00;100124.38;5092961;28;20945;-69
2021/08/06 06:03:28;;;;;;;3.20;2.80;;;;;;;17.46;100.00;100122.69;5093132;28;20491;-69
2021/08/06 06:05:55;;;;;;;3.30;2.70;;;;;;;17.55;100.00;100117.00;5093186;28;20440;-69
2021/08/06 06:08:21;;;;;;;4.40;2.53;;;;;;;17.64;100.00;100117.56;5092903;28;20813;-69
2021/08/06 06:10:48;;;;;;;5.00;2.70;;;;;;;17.77;100.00;100118.25;5093156;28;20448;-69
2021/08/06 06:13:14;;;;;;;4.40;3.10;;;;;;;17.88;100.00;100111.84;5093126;28;20437;-69
2021/08/06 06:15:42;;;;;;;6.50;3.20;;;;;;;18.00;100.00;100112.81;5093137;28;20435;-69
2021/08/06 06:18:09;;;;;;;4.23;3.80;;;;;;;18.12;100.00;100113.47;5093168;28;20440;-69
2021/08/06 06:20:35;;;;;;;4.60;3.20;;;;;;;18.23;100.00;100113.66;5092905;28;20440;-69
2021/08/06 06:23:02;;;;;;;6.53;4.10;;;;;;;18.32;100.00;100118.88;5096571;28;20440;-68
2021/08/06 06:25:29;;;;;;;4.90;2.90;;;;;;;18.41;100.00;100117.50;5096561;28;20468;-68
2021/08/06 06:27:57;;;;;;;5.50;4.03;;;;;;;18.50;100.00;100124.69;5097035;28;20444;-69
2021/08/06 06:30:26;;;;;;;3.43;3.13;;;;;;;18.56;100.00;100118.53;5097095;28;20445;-70
2021/08/06 06:32:55;;;;;;;3.80;3.40;;;;;;;18.64;100.00;100122.22;5097170;28;20436;-69
2021/08/06 06:35:23;;;;;;;2.80;2.57;;;;;;;18.73;100.00;100122.78;5097090;28;20467;-69
2021/08/06 06:37:51;;;;;;;4.10;3.27;;;;;;;18.80;100.00;100122.88;5096895;28;20440;-69
2021/08/06 06:40:18;;;;;;;3.83;3.10;;;;;;;18.86;99.49;100129.66;5096959;28;20435;-69
2021/08/06 06:42:46;;;;;;;3.10;2.83;;;;;;;18.86;98.68;100129.66;5096480;28;20937;-70
2021/08/06 06:45:13;;;;;;;4.77;3.37;;;;;;;18.86;97.49;100134.34;5096630;28;20514;-69
2021/08/06 06:47:42;;;;;;;3.63;3.10;;;;;;;18.86;95.00;100137.88;5096733;28;20443;-69
2021/08/06 06:50:13;;;;;;;6.97;3.17;;;;;;;18.82;94.01;100139.00;5096651;28;20497;-69
2021/08/06 06:52:40;;;;;;;4.93;3.40;;;;;;;18.81;94.18;100140.13;5096670;28;20425;-69
2021/08/06 06:55:08;;;;;;;3.50;3.20;;;;;;;18.79;94.40;100137.75;5096532;28;20460;-69
2021/08/06 06:57:41;;;;;;;2.90;2.60;;;;;;;18.76;94.65;100140.44;5096330;28;20440;-69
2021/08/06 07:00:09;;;;;;;3.70;3.00;;;;;;;18.72;95.91;100132.16;5096752;28;20424;-69
2021/08/06 07:02:35;;;;;;;4.43;3.13;;;;;;;18.70;96.93;100139.19;5096409;28;20443;-69
2021/08/06 07:05:02;;;;;;;6.20;3.63;;;;;;;18.69;98.77;100137.56;5096211;28;20935;-69
2021/08/06 07:07:30;;;;;;;4.20;3.67;;;;;;;18.67;99.61;100135.97;5096346;28;20444;-69
2021/08/06 07:09:56;;;;;;;3.97;3.57;;;;;;;18.71;100.00;100146.25;5096507;28;20467;-70
2021/08/06 07:12:23;;;;;;;3.60;2.70;;;;;;;18.74;100.00;100143.56;5096647;28;20447;-70
2021/08/06 07:14:49;;;;;;;4.47;2.93;;;;;;;18.78;100.00;100152.66;5102255;28;20471;-71
2021/08/06 07:17:15;;;;;;;3.93;3.20;;;;;;;18.82;100.00;100145.28;5096142;28;20452;-72
2021/08/06 07:19:42;;;;;;;4.40;3.10;;;;;;;18.92;100.00;100143.06;5096135;28;20452;-71
2021/08/06 07:22:08;;;;;;;4.40;3.60;;;;;;;19.11;100.00;100142.94;5096041;28;20448;-72
2021/08/06 07:24:36;;;;;;;5.27;3.47;;;;;;;19.28;99.19;100149.88;5095717;28;20495;-74
2021/08/06 07:27:04;;;;;;;5.37;3.30;;;;;;;19.54;95.73;100155.34;5095196;28;20452;-73
2021/08/06 07:29:30;;;;;;;4.37;3.40;;;;;;;19.82;93.27;100154.94;5095342;28;20448;-73
2021/08/06 07:31:57;;;;;;;9.20;4.37;;;;;;;19.97;92.45;100152.38;5095132;28;20449;-73
2021/08/06 07:34:23;;;;;;;4.73;4.00;;;;;;;20.14;92.67;100149.81;5095988;28;20453;-73
2021/08/06 07:36:49;;;;;;;5.23;3.67;;;;;;;20.38;92.20;100156.75;5095708;28;20443;-73
2021/08/06 07:39:16;;;;;;;6.30;4.30;;;;;;;20.61;90.59;100150.31;5095737;28;20457;-73
2021/08/06 07:41:44;;;;;;;7.50;3.37;;;;;;;20.77;87.65;100159.09;5095700;28;20448;-74
2021/08/06 07:44:10;;;;;;;2.47;2.27;;;;;;;20.86;86.54;100156.81;5095522;28;20488;-73
2021/08/06 07:46:36;;;;;;;4.53;3.00;;;;;;;20.94;86.09;100154.91;5095866;28;20436;-73
2021/08/06 07:49:03;;;;;;;4.53;2.50;;;;;;;21.00;85.49;100155.34;5095558;28;20448;-73
2021/08/06 07:51:29;;;;;;;3.90;2.43;;;;;;;21.02;84.62;100153.78;5095785;28;20444;-73
2021/08/06 07:53:56;;;;;;;3.93;3.27;;;;;;;20.99;84.59;100149.06;5095364;28;20463;-73
2021/08/06 07:56:22;;;;;;;4.03;2.70;;;;;;;21.00;84.75;100150.63;5095470;28;20447;-72
2021/08/06 07:58:50;;;;;;;4.67;3.30;;;;;;;20.95;81.68;100155.72;5095307;28;20444;-71
2021/08/06 08:01:17;;;;;;;4.83;3.47;;;;;;;20.96;82.71;100149.81;5095293;28;20443;-71
2021/08/06 08:03:43;;;;;;;3.20;2.50;;;;;;;21.00;83.29;100155.34;5095190;28;20523;-72
2021/08/06 08:06:10;;;;;;;3.20;2.17;;;;;;;20.96;83.88;100143.50;5095274;28;20459;-77
2021/08/06 08:08:36;;;;;;;3.80;2.97;;;;;;;21.03;83.30;100149.88;5095158;28;20451;-76
2021/08/06 08:11:03;;;;;;;3.00;2.63;;;;;;;21.05;83.30;100149.47;5094795;28;20942;-77
2021/08/06 08:13:29;;;;;;;3.20;2.90;;;;;;;21.09;83.12;100145.56;5094735;28;20971;-75
2021/08/06 08:15:57;;;;;;;3.23;2.50;;;;;;;21.14;82.90;100153.47;5095015;28;20444;-75
2021/08/06 08:18:23;;;;;;;3.40;2.60;;;;;;;21.14;82.32;100144.41;5095023;28;20440;-72
2021/08/06 08:20:50;;;;;;;3.10;2.80;;;;;;;21.21;81.76;100143.69;5094906;28;20464;-73
2021/08/06 08:23:17;;;;;;;3.47;2.67;;;;;;;21.25;81.82;100138.97;5094670;28;20444;-73
2021/08/06 08:25:44;;;;;;;3.23;2.97;;;;;;;21.29;81.23;100140.56;5094922;28;20811;-72
2021/08/06 08:28:10;;;;;;;4.80;3.40;;;;;;;21.34;79.74;100142.22;5094425;28;20510;-75
2021/08/06 08:30:37;;;;;;;4.17;2.50;;;;;;;21.32;79.24;100131.56;5094790;28;20445;-74
2021/08/06 08:33:05;;;;;;;3.03;2.47;;;;;;;21.36;78.77;100140.66;5094644;28;20449;-74
2021/08/06 08:35:32;;;;;;;2.90;2.33;;;;;;;21.45;78.21;100143.06;5094564;28;20487;-74
2021/08/06 08:37:58;;;;;;;4.20;2.93;;;;;;;21.49;77.27;100143.88;5094466;28;20436;-74
2021/08/06 08:40:25;;;;;;;3.20;2.13;;;;;;;21.55;74.71;100133.25;5094565;28;20447;-74
2021/08/06 08:42:52;;;;;;;6.17;2.10;;;;;;;21.60;74.97;100143.91;5094482;28;20448;-74
2021/08/06 08:45:18;;;;;;;3.50;2.97;;;;;;;21.72;75.75;100140.81;5093107;28;21105;-74
2021/08/06 08:47:49;;;;;;;3.63;2.57;;;;;;;21.81;74.75;100138.50;5094356;28;20794;-75
2021/08/06 08:50:17;;;;;;;3.50;2.50;;;;;;;21.87;73.67;100142.47;5094015;28;20457;-75
2021/08/06 08:52:43;;;;;;;3.60;2.37;;;;;;;21.88;72.72;100138.53;5094426;28;20463;-74
2021/08/06 08:55:11;;;;;;;2.40;1.80;;;;;;;21.88;72.55;100133.03;5094084;28;20460;-75
2021/08/06 08:57:37;;;;;;;2.40;1.80;;;;;;;21.99;70.81;100132.25;5094273;28;20452;-74
2021/08/06 09:00:05;;;;;;;3.50;2.30;;;;;;;22.10;67.91;100136.63;5094094;28;20443;-74
2021/08/06 09:02:32;;;;;;;7.40;2.50;;;;;;;22.11;68.14;100137.41;5093714;28;20933;-75
2021/08/06 09:05:08;;;;;;;2.33;1.80;;;;;;;22.21;63.00;100133.13;5093801;28;20480;-75
2021/08/06 09:07:36;;;;;;;1.33;1.20;;;;;;;22.35;63.17;100133.94;5093882;28;20894;-75
2021/08/06 09:10:08;;;;;;;2.50;1.47;;;;;;;22.49;65.55;100126.84;5093900;28;20447;-75
2021/08/06 09:12:47;;;;;;;1.53;1.43;;;;;;;22.58;59.82;100133.59;5100892;28;20444;-74
2021/08/06 09:15:13;;;;;;;1.60;1.50;;;;;;;22.62;64.17;100128.84;5094082;28;20573;-74
2021/08/06 09:17:39;;;;;;;2.70;2.00;;;;;;;22.73;62.42;100128.84;5093904;28;20444;-74
2021/08/06 09:20:09;;;;;;;2.70;1.93;;;;;;;22.82;61.66;100134.75;5093712;28;20829;-74
2021/08/06 09:22:39;;;;;;;2.30;1.80;;;;;;;22.99;63.32;100137.94;5093821;28;20535;-75
2021/08/06 09:25:16;;;;;;;3.17;2.10;;;;;;;23.07;59.99;100137.53;5093041;28;20492;-74
2021/08/06 09:27:44;;;;;;;1.73;1.37;;;;;;;23.07;58.95;100129.25;5093636;28;20428;-73
2021/08/06 09:30:14;;;;;;;2.10;1.80;;;;;;;23.09;60.62;100123.31;5093644;28;20441;-74
2021/08/06 09:33:01;;;;;;;1.87;1.60;;;;;;;23.14;61.67;100131.19;5093231;28;20815;-74
2021/08/06 09:35:29;;;;;;;2.13;1.87;;;;;;;23.24;60.12;100138.69;5086932;28;20913;-74
2021/08/06 09:37:58;;;;;;;2.33;1.87;;;;;;;23.26;59.30;100130.00;5093523;28;20444;-74
2021/08/06 09:40:26;;;;;;;3.00;2.67;;;;;;;23.30;60.31;100131.56;5093929;28;20441;-74
2021/08/06 09:42:56;;;;;;;2.10;1.83;;;;;;;23.35;60.18;100133.91;5093725;28;20941;-74
2021/08/06 09:45:25;;;;;;;1.63;1.50;;;;;;;23.30;62.25;100123.28;5092987;28;20992;-74
2021/08/06 09:47:59;;;;;;;1.73;1.53;;;;;;;23.38;57.95;100133.13;5093288;28;20440;-75
2021/08/06 09:50:33;;;;;;;1.53;1.40;;;;;;;23.36;58.94;100113.38;5093495;28;20430;-74
2021/08/06 09:53:02;;;;;;;2.10;1.90;;;;;;;23.39;57.19;100122.84;5093170;28;20917;-74
2021/08/06 09:55:31;;;;;;;3.17;1.70;;;;;;;23.46;57.86;100122.81;5093034;28;20468;-74
2021/08/06 09:57:59;;;;;;;2.70;1.50;;;;;;;23.53;56.45;100122.03;5093217;28;20447;-74
2021/08/06 10:00:28;;;;;;;2.10;1.43;;;;;;;23.56;56.07;100112.94;5093389;28;20433;-75
2021/08/06 10:02:55;;;;;;;1.67;1.50;;;;;;;23.54;57.31;100116.06;5093413;28;20436;-74
2021/08/06 10:05:24;;;;;;;2.10;1.77;;;;;;;23.64;56.55;100108.94;5093121;28;20495;-74
2021/08/06 10:07:53;;;;;;;1.93;1.47;;;;;;;23.77;55.94;100107.31;5093157;28;20448;-74
2021/08/06 10:10:23;;;;;;;1.93;1.20;;;;;;;23.96;54.35;100105.25;5092917;28;20956;-74
2021/08/06 10:12:50;;;;;;;1.70;1.60;;;;;;;24.06;53.63;100102.44;5093076;28;20440;-74
2021/08/06 10:15:19;;;;;;;2.67;1.50;;;;;;;24.14;55.18;100108.72;5093017;28;20467;-75
2021/08/06 10:17:46;;;;;;;2.33;1.80;;;;;;;24.16;55.75;100109.09;5093218;28;20451;-74
2021/08/06 10:20:14;;;;;;;2.23;1.60;;;;;;;24.21;54.60;100105.09;5093105;28;20446;-74
2021/08/06 10:22:41;;;;;;;2.20;2.00;;;;;;;24.26;54.83;100104.66;5093111;28;20451;-73
2021/08/06 10:25:10;;;;;;;2.10;1.73;;;;;;;24.23;54.51;100094.41;5092729;28;21016;-74
2021/08/06 10:27:43;;;;;;;2.37;1.53;;;;;;;24.25;57.33;100089.25;5092815;28;20958;-74
2021/08/06 10:30:11;;;;;;;1.60;1.50;;;;;;;24.40;53.85;100097.09;5093052;28;20424;-74
2021/08/06 10:32:40;;;;;;;2.30;1.57;;;;;;;24.53;54.76;100102.16;5094337;28;20444;-74
2021/08/06 10:35:16;;;;;;;1.27;1.17;;;;;;;24.61;55.89;100089.78;5092913;28;20461;-75
2021/08/06 10:38:00;;;;;;;2.40;2.20;;;;;;;24.78;54.21;100090.84;5093038;28;20420;-75
2021/08/06 10:44:04;;;;;;;1.97;1.83;;;;;;;25.02;51.90;100089.81;5089887;28;20981;-75
2021/08/06 10:46:51;;;;;;;1.97;1.70;;;;;;;25.17;51.92;100093.25;5092674;28;20464;-74
2021/08/06 10:49:18;;;;;;;2.17;1.97;;;;;;;25.30;50.63;100091.50;5092665;28;20447;-75
2021/08/06 10:51:45;;;;;;;1.90;1.50;;;;;;;25.45;50.69;100086.56;5092495;28;20523;-75
2021/08/06 10:54:36;;;;;;;1.67;1.33;;;;;;;25.50;48.20;100077.00;5091362;28;20465;-74
2021/08/06 10:57:21;;;;;;;2.30;1.60;;;;;;;25.58;50.06;100084.03;5092812;28;20432;-75
2021/08/06 10:59:50;;;;;;;1.90;1.60;;;;;;;25.72;50.50;100071.97;5092958;28;20427;-74
2021/08/06 11:02:45;;;;;;;4.90;1.73;;;;;;;25.84;46.25;100077.00;5093167;28;20497;-75
2021/08/06 11:05:38;;;;;;;1.50;1.00;;;;;;;25.87;45.46;100076.94;5092302;28;20488;-75
2021/08/06 11:08:44;;;;;;;2.43;1.20;;;;;;;25.88;45.00;100074.94;5095059;28;20515;-74
2021/08/06 11:11:45;;;;;;;2.30;1.37;;;;;;;25.99;46.07;100080.38;5096344;28;20437;-75
2021/08/06 11:14:12;;;;;;;1.13;1.03;;;;;;;26.13;45.27;100074.59;5097618;28;20452;-74
2021/08/06 11:16:59;;;;;;;1.63;1.40;;;;;;;26.35;44.58;100069.50;5096599;28;20440;-75
2021/08/06 11:19:27;;;;;;;2.27;1.27;;;;;;;26.44;44.04;100064.22;5096602;28;20440;-75
2021/08/06 11:21:55;;;;;;;1.80;1.47;;;;;;;26.75;44.74;100064.09;5095776;28;20448;-75
2021/08/06 11:24:21;;;;;;;1.40;1.30;;;;;;;27.09;41.16;100061.91;5095788;28;20488;-75
2021/08/06 11:26:48;;;;;;;1.77;1.37;;;;;;;27.73;43.11;100059.81;5095957;28;20503;-75
2021/08/06 11:29:15;;;;;;;1.40;1.30;;;;;;;28.50;41.34;100063.97;5096023;28;20455;-75
2021/08/06 11:31:41;;;;;;;1.47;1.13;;;;;;;28.64;39.08;100062.81;5095954;28;20463;-75